Latest Weather Observations for Brisbane Airport

IDQ60901

Issued at 6:41 pm EST Thursday 18 July 2024 (issued every 10 minutes, with the page automatically refreshed every 10 minutes)

About weather observations | Map of Brisbane area stations | Latest observations for Brisbane area | Other Formats
Station Details ID: 040842 Name: BRISBANE AERO Lat: -27.39 Lon: 153.13 Height: 4.51 m
Data from the previous 72 hours. | See also: Recent months at Brisbane Airport
Date/Time
EST
Temp
°C
App
Temp
°C
Dew
Point
°C
Rel
Hum
%
Delta-T
°C
Wind Press
QNH
hPa
Press
MSL
hPa
Rain since
9am
mm
Dir  Spd
km/h
Gust
km/h
Spd
kts
Gust
kts
18/06:30pm 13.9 9.7 5.5 57 4.0 W 17 20 9 11 1015.2 1015.2 0.0
18/06:00pm 14.0 9.4 5.4 56 4.0 WSW 19 26 10 14 1015.0 1015.0 0.0
18/05:30pm 14.6 9.9 5.1 53 4.5 WSW 19 32 10 17 1014.4 1014.4 0.0
18/05:00pm 15.8 9.4 5.1 49 5.1 WSW 28 35 15 19 1013.8 1013.8 0.0
18/04:30pm 16.5 10.1 5.2 47 5.4 WSW 28 37 15 20 1013.4 1013.4 0.0
18/04:00pm 17.0 10.0 5.9 48 5.4 W 32 39 17 21 1012.9 1012.9 0.0
18/03:30pm 17.7 10.7 5.9 46 5.8 WSW 32 43 17 23 1012.6 1012.6 0.0
18/03:00pm 17.7 10.7 5.9 46 5.8 WSW 32 48 17 26 1012.5 1012.5 0.0
18/02:30pm 18.4 12.7 6.6 46 5.9 WSW 26 39 14 21 1012.3 1012.3 0.0
18/02:00pm 17.9 11.3 6.1 46 5.8 WSW 30 41 16 22 1012.4 1012.4 0.0
18/01:30pm 18.3 11.3 6.8 47 5.7 WSW 33 41 18 22 1012.3 1012.3 0.0
18/01:00pm 17.6 10.1 6.5 48 5.5 WSW 35 44 19 24 1012.6 1012.6 0.0
18/12:30pm 17.3 10.5 6.8 50 5.2 WSW 32 41 17 22 1012.9 1012.9 0.0
18/12:00pm 17.4 11.1 7.2 51 5.1 WSW 30 41 16 22 1013.5 1013.5 0.0
18/11:30am 16.7 10.4 7.4 54 4.6 WSW 30 37 16 20 1014.0 1014.0 0.0
18/11:00am 16.4 9.5 7.3 55 4.5 WSW 33 41 18 22 1014.4 1014.4 0.0
18/10:30am 15.9 9.1 7.1 56 4.3 WSW 32 39 17 21 1014.7 1014.7 0.0
18/10:00am 15.2 8.9 7.3 59 3.9 WSW 30 39 16 21 1014.9 1014.9 0.0
18/09:30am 14.9 8.2 7.2 60 3.8 WSW 32 37 17 20 1014.9 1014.9 0.0
18/09:00am 14.1 7.7 6.9 62 3.5 SW 30 41 16 22 1014.7 1014.7 0.0
18/08:30am 13.4 8.1 7.0 65 3.1 WSW 24 35 13 19 1014.4 1014.4 0.0
18/08:00am 12.7 7.8 7.0 68 2.7 WSW 22 32 12 17 1014.3 1014.3 0.0
18/07:30am 11.7 8.5 6.8 72 2.3 W 13 19 7 10 1014.3 1014.3 0.0
18/07:00am 10.8 6.2 6.4 74 2.1 WSW 20 32 11 17 1014.0 1014.0 0.0
18/06:30am 10.7 6.6 6.1 73 2.1 WSW 17 22 9 12 1013.6 1013.6 0.0
18/06:00am 10.8 6.1 6.2 73 2.1 WSW 20 26 11 14 1013.6 1013.6 0.0
18/05:30am 10.8 5.4 6.2 73 2.1 WSW 24 32 13 17 1013.5 1013.5 0.0
18/05:00am 11.0 6.3 6.0 71 2.3 WSW 20 28 11 15 1013.4 1013.4 0.0
18/04:30am 10.8 5.7 5.8 71 2.3 WSW 22 32 12 17 1013.2 1013.2 0.0
18/04:00am 10.9 5.0 5.7 70 2.4 WSW 26 39 14 21 1013.2 1013.2 0.0
18/03:30am 11.1 4.8 5.8 70 2.5 WSW 28 35 15 19 1013.0 1013.0 0.0
18/03:00am 11.3 4.2 5.6 68 2.6 WSW 32 39 17 21 1013.0 1013.0 0.0
18/02:30am 11.6 4.5 5.7 67 2.7 WSW 32 41 17 22 1013.1 1013.1 0.0
18/02:00am 11.6 5.3 5.5 66 2.8 W 28 35 15 19 1013.1 1013.1 0.0
18/01:30am 11.7 5.0 5.6 66 2.8 W 30 39 16 21 1013.3 1013.3 0.0
18/01:00am 11.4 6.6 5.5 67 2.7 W 20 28 11 15 1013.6 1013.6 0.0
18/12:30am 11.4 6.2 5.7 68 2.6 W 22 37 12 20 1013.7 1013.7 0.0
18/12:00am 11.5 6.4 5.8 68 2.6 W 22 30 12 16 1013.6 1013.6 0.0
 
Date/Time
EST
Temp
°C
App
Temp
°C
Dew
Point
°C
Rel
Hum
%
Delta-T
°C
Wind Press
QNH
hPa
Press
MSL
hPa
Rain since
9am
mm
Dir  Spd
km/h
Gust
km/h
Spd
kts
Gust
kts
17/11:30pm 11.6 5.7 5.7 67 2.7 W 26 37 14 20 1013.8 1013.8 0.0
17/11:00pm 11.4 4.3 5.7 68 2.6 W 32 39 17 21 1013.9 1013.9 0.0
17/10:30pm 11.4 5.9 5.7 68 2.6 WSW 24 32 13 17 1014.2 1014.2 0.0
17/10:00pm 11.3 5.4 5.6 68 2.6 W 26 35 14 19 1014.2 1014.2 0.0
17/09:30pm 11.3 5.0 5.6 68 2.6 WSW 28 35 15 19 1014.1 1014.1 0.0
17/09:00pm 11.0 5.1 5.7 70 2.4 WSW 26 33 14 18 1014.2 1014.2 0.0
17/08:30pm 11.2 5.2 5.5 68 2.6 WSW 26 33 14 18 1013.7 1013.7 0.0
17/08:00pm 12.1 4.8 5.5 64 3.1 W 33 43 18 23 1013.1 1013.1 0.0
17/07:30pm 12.3 5.9 5.2 62 3.3 W 28 37 15 20 1013.0 1013.0 0.0
17/07:00pm 12.3 5.9 5.0 61 3.4 WSW 28 37 15 20 1012.7 1012.7 0.0
17/06:30pm 12.6 5.8 5.1 60 3.5 W 30 43 16 23 1012.4 1012.4 0.0
17/06:00pm 12.7 5.9 5.1 60 3.5 WSW 30 41 16 22 1012.1 1012.1 0.0
17/05:30pm 12.7 4.9 4.9 59 3.6 WSW 35 44 19 24 1011.5 1011.5 0.0
17/05:00pm 13.4 6.1 5.3 58 3.8 WSW 33 44 18 24 1011.0 1011.0 0.0
17/04:41pm 13.6 7.2 5.3 57 3.9 WSW 28 46 15 25 1011.0 1011.0 0.0
17/04:30pm 13.6 6.2 5.0 56 4.0 WSW 33 44 18 24 1010.8 1010.8 0.0
17/04:00pm 14.6 5.7 5.1 53 4.5 WSW 41 54 22 29 1010.4 1010.4 0.0
17/03:30pm 15.0 7.2 4.7 50 4.8 WSW 35 43 19 23 1010.1 1010.1 0.0
17/03:00pm 15.2 7.7 4.6 49 5.0 WSW 33 46 18 25 1010.3 1010.3 0.0
17/02:30pm 15.8 8.6 5.1 49 5.1 WSW 32 44 17 24 1010.1 1010.1 0.0
17/02:00pm 16.1 8.9 5.1 48 5.2 W 32 43 17 23 1009.9 1009.9 0.0
17/01:30pm 16.2 9.4 5.2 48 5.2 WSW 30 39 16 21 1009.9 1009.9 0.0
17/01:00pm 15.8 8.0 5.1 49 5.1 W 35 46 19 25 1010.2 1010.2 0.0
17/12:30pm 15.9 7.4 5.2 49 5.1 W 39 50 21 27 1010.2 1010.2 0.0
17/12:00pm 15.1 8.0 5.3 52 4.6 W 32 46 17 25 1010.9 1010.9 0.0
17/11:30am 14.9 7.6 5.4 53 4.5 W 33 44 18 24 1011.6 1011.6 0.0
17/11:00am 14.4 6.6 4.7 52 4.5 WSW 35 48 19 26 1012.1 1012.1 0.0
17/10:30am 13.7 6.4 4.6 54 4.2 WSW 32 39 17 21 1012.9 1012.9 0.0
17/10:00am 13.6 6.1 4.5 54 4.2 WSW 33 43 18 23 1013.0 1013.0 0.0
17/09:30am 13.1 5.6 4.3 55 4.0 WSW 33 44 18 24 1013.3 1013.3 0.0
17/09:00am 12.5 3.4 4.0 56 3.8 WSW 41 52 22 28 1012.9 1012.9 0.0
17/08:30am 11.8 2.6 3.6 57 3.6 WSW 41 50 22 27 1012.8 1012.8 0.0
17/08:00am 11.2 3.5 3.5 59 3.4 WSW 33 46 18 25 1013.1 1013.1 0.0
17/07:30am 10.6 4.3 3.9 63 3.0 W 26 33 14 18 1013.1 1013.1 0.0
17/07:00am 9.8 4.7 3.3 64 2.8 W 19 26 10 14 1013.0 1013.0 0.0
17/06:30am 9.8 5.5 3.3 64 2.8 WNW 15 19 8 10 1012.7 1012.7 0.0
17/06:00am 10.0 5.7 3.1 62 3.0 NW 15 24 8 13 1012.3 1012.3 0.0
17/05:30am 10.3 4.2 2.7 59 3.3 WNW 24 33 13 18 1011.6 1011.6 0.0
17/05:00am 10.2 4.9 2.1 57 3.4 WNW 19 28 10 15 1011.5 1011.5 0.0
17/04:30am 10.5 5.0 2.1 56 3.6 W 20 28 11 15 1011.1 1011.1 0.0
17/04:00am 10.7 5.2 1.8 54 3.8 W 20 28 11 15 1010.9 1010.9 0.0
17/03:30am 11.1 5.2 1.4 51 4.1 WNW 22 30 12 16 1011.0 1011.0 0.0
17/03:00am 11.0 6.0 1.5 52 4.0 WNW 17 24 9 13 1010.9 1010.9 0.0
17/02:30am 12.1 6.2 1.4 48 4.5 WNW 22 32 12 17 1010.9 1010.9 0.0
17/02:00am 12.6 7.6 1.3 46 4.8 W 17 24 9 13 1010.9 1010.9 0.0
17/01:30am 12.6 7.2 1.3 46 4.8 W 19 28 10 15 1011.1 1011.1 0.0
17/01:00am 12.4 5.6 0.8 45 4.9 WSW 26 41 14 22 1011.3 1011.3 0.0
17/12:30am 13.2 5.6 0.6 42 5.3 WSW 30 39 16 21 1011.1 1011.1 0.0
17/12:00am 13.2 6.3 0.3 41 5.4 WSW 26 37 14 20 1011.4 1011.4 0.0
 
Date/Time
EST
Temp
°C
App
Temp
°C
Dew
Point
°C
Rel
Hum
%
Delta-T
°C
Wind Press
QNH
hPa
Press
MSL
hPa
Rain since
9am
mm
Dir  Spd
km/h
Gust
km/h
Spd
kts
Gust
kts
16/11:30pm 12.4 7.4 1.1 46 4.8 W 17 30 9 16 1011.6 1011.6 0.0
16/11:00pm 12.2 7.3 2.1 50 4.4 WSW 17 26 9 14 1011.9 1011.9 0.0
16/10:30pm 13.3 5.6 2.2 47 4.8 WSW 32 43 17 23 1012.1 1012.1 0.0
16/10:00pm 13.4 6.9 2.6 48 4.8 WSW 26 37 14 20 1012.1 1012.1 0.0
16/09:30pm 13.3 8.2 3.1 50 4.5 WSW 19 26 10 14 1012.0 1012.0 0.0
16/09:00pm 14.0 8.7 3.2 48 4.8 WSW 20 32 11 17 1011.8 1011.8 0.0
16/08:30pm 13.8 8.5 3.0 48 4.8 WSW 20 30 11 16 1011.5 1011.5 0.0
16/08:00pm 13.9 9.1 2.8 47 4.9 WSW 17 24 9 13 1011.3 1011.3 0.0
16/07:30pm 14.0 8.8 2.6 46 5.0 W 19 22 10 12 1010.9 1010.9 0.0
16/07:00pm 13.5 8.7 2.4 47 4.9 WSW 17 22 9 12 1010.7 1010.7 0.0
16/06:30pm 13.8 9.7 2.1 45 5.1 W 13 19 7 10 1010.5 1010.5 0.0
16/06:00pm 14.8 8.9 1.7 41 5.7 W 22 28 12 15 1009.8 1009.8 0.0
16/05:30pm 15.3 10.3 1.1 38 6.2 W 17 28 9 15 1009.7 1009.7 0.0
16/05:00pm 16.2 10.2 1.1 36 6.6 W 22 33 12 18 1009.2 1009.2 0.0
16/04:30pm 16.7 8.6 1.2 35 6.8 W 33 50 18 27 1008.9 1008.9 0.0
16/04:00pm 17.3 8.4 0.9 33 7.2 W 37 48 20 26 1008.5 1008.5 0.0
16/03:30pm 17.8 8.6 1.3 33 7.3 W 39 52 21 28 1008.6 1008.6 0.0
16/03:06pm 17.9 8.3 1.4 33 7.4 W 41 67 22 36 1008.2 1008.2 0.0
16/03:00pm 17.9 8.0 1.4 33 7.4 WSW 43 56 23 30 1008.3 1008.3 0.0
16/02:30pm 18.1 6.3 0.3 30 7.8 W 52 70 28 38 1008.2 1008.2 0.0
16/02:13pm 18.0 7.7 0.6 31 7.6 WSW 44 69 24 37 1008.1 1008.1 0.0
16/02:00pm 18.0 8.5 1.5 33 7.4 WSW 41 56 22 30 1008.2 1008.2 0.0
16/01:30pm 18.0 8.8 1.5 33 7.4 WSW 39 54 21 29 1008.4 1008.4 0.0
16/01:00pm 18.7 9.0 2.9 35 7.3 WSW 43 59 23 32 1008.7 1008.7 0.0
16/12:41pm 17.8 8.2 3.3 38 6.7 WSW 43 63 23 34 1008.9 1008.9 0.0
16/12:30pm 17.8 7.9 2.9 37 6.9 W 44 57 24 31 1009.1 1009.1 0.0
16/12:10pm 16.9 8.0 2.9 39 6.4 WSW 39 61 21 33 1009.5 1009.5 0.0
16/12:00pm 16.7 5.6 2.3 38 6.5 W 50 63 27 34 1009.7 1009.7 0.0
16/11:31am 16.9 9.4 4.3 43 5.9 WSW 33 56 18 30 1010.4 1010.4 0.0
16/11:30am 16.4 8.7 3.5 42 5.9 WSW 33 48 18 26 1010.4 1010.4 0.0
16/11:17am 16.7 9.3 4.1 43 5.9 WSW 32 50 17 27 1010.6 1010.6 0.0
16/11:00am 16.0 8.6 4.1 45 5.5 WSW 32 43 17 23 1011.0 1011.0 0.0
16/10:30am 15.8 9.2 4.2 46 5.4 WSW 28 46 15 25 1011.6 1011.6 0.0
16/10:29am 15.5 8.8 3.6 45 5.4 WSW 28 46 15 25 1011.7 1011.7 0.0
16/10:00am 15.1 9.3 4.5 49 4.9 WSW 24 35 13 19 1012.0 1012.0 0.0
16/09:30am 14.8 10.3 4.2 49 4.9 WNW 17 35 9 19 1012.3 1012.3 0.0
16/09:00am 13.9 9.7 5.5 57 4.0 W 17 24 9 13 1012.3 1012.3 0.0
16/08:30am 12.9 8.3 6.3 64 3.1 WNW 20 26 11 14 1012.2 1012.2 0.0
16/08:00am 11.5 7.3 5.8 68 2.7 NW 17 24 9 13 1012.2 1012.2 0.0
16/07:30am 9.9 6.5 5.9 76 1.8 NW 13 19 7 10 1012.0 1012.0 0.0
16/07:00am 7.9 4.7 5.2 83 1.2 NW 11 13 6 7 1011.7 1011.7 0.0
16/06:30am 7.8 4.9 4.9 82 1.3 NW 9 13 5 7 1011.5 1011.5 0.0
16/06:00am 8.0 4.4 4.9 81 1.4 NW 13 17 7 9 1011.2 1011.2 0.0
16/05:30am 7.8 4.9 4.9 82 1.3 NW 9 13 5 7 1011.1 1011.1 0.0
16/05:00am 8.4 4.9 5.5 82 1.3 NW 13 15 7 8 1010.9 1010.9 0.0
16/04:30am 6.9 3.3 5.2 89 0.7 NW 13 15 7 8 1010.7 1010.7 0.0
16/04:00am 6.3 3.0 4.3 87 0.9 NW 11 13 6 7 1010.8 1010.8 0.0
16/03:30am 6.9 4.4 4.6 85 1.0 WNW 7 13 4 7 1010.9 1010.9 0.0
16/03:00am 7.2 6.0 4.7 84 1.1 CALM 0 0 0 0 1011.0 1011.0 0.0
16/02:30am 6.9 4.6 4.7 86 1.0 NW 6 7 3 4 1011.0 1011.0 0.0
16/02:00am 6.5 3.5 4.0 84 1.1 NNW 9 11 5 6 1011.2 1011.2 0.0
16/01:30am 7.6 5.1 4.6 81 1.3 NNW 7 9 4 5 1011.2 1011.2 0.0
16/01:00am 7.3 4.4 4.6 83 1.2 NNW 9 11 5 6 1011.3 1011.3 0.0
16/12:30am 9.9 7.0 4.7 70 2.3 NW 9 11 5 6 1011.5 1011.5 0.0
16/12:00am 10.0 6.7 4.6 69 2.4 WNW 11 13 6 7 1011.6 1011.6 0.0
 
Date/Time
EST
Temp
°C
App
Temp
°C
Dew
Point
°C
Rel
Hum
%
Delta-T
°C
Wind Press
QNH
hPa
Press
MSL
hPa
Rain since
9am
mm
Dir  Spd
km/h
Gust
km/h
Spd
kts
Gust
kts
15/11:30pm 10.5 6.5 4.9 68 2.5 W 15 19 8 10 1011.6 1011.6 0.0
15/11:00pm 10.6 6.9 4.7 67 2.7 W 13 17 7 9 1011.7 1011.7 0.0
15/10:30pm 11.1 7.4 4.6 64 2.9 W 13 15 7 8 1011.8 1011.8 0.0
15/10:00pm 11.7 7.3 4.7 62 3.2 W 17 19 9 10 1011.9 1011.9 0.0
15/09:30pm 11.9 7.4 4.4 60 3.4 W 17 20 9 11 1012.0 1012.0 0.0
15/09:00pm 12.1 8.0 4.6 60 3.4 WNW 15 22 8 12 1012.0 1012.0 0.0
15/08:30pm 12.6 8.1 4.3 57 3.8 W 17 20 9 11 1011.8 1011.8 0.0
15/08:00pm 12.8 8.7 4.3 56 3.9 W 15 19 8 10 1011.6 1011.6 0.0
15/07:30pm 12.6 8.9 4.3 57 3.8 W 13 17 7 9 1011.3 1011.3 0.0
15/07:00pm 12.9 8.8 4.6 57 3.8 WNW 15 17 8 9 1011.0 1011.0 0.0

Latest Capital City Observations: Canberra | Sydney | Melbourne | Brisbane | Adelaide | Perth | Hobart | Darwin

Other formats

Comma delimited format used in spreadsheet applications
http://www.bom.gov.au/fwo/IDQ60901/IDQ60901.94578.axf

JavaScript Object Notation format (JSON) in row-major order
http://www.bom.gov.au/fwo/IDQ60901/IDQ60901.94578.json

Data quality

Most of these data are generated automatically and are frequently updated. Quality checks on data are not normally performed. It is possible for incorrect values to appear. Refer to information at About Latest Weather Observations and please check the disclaimer before using these data.